createdAt,value
2022-12-06T00:01:32.582Z,22.73
2022-12-06T00:04:03.446Z,21.40
2022-12-06T00:06:33.850Z,20.43
2022-12-06T00:09:01.434Z,22.50
2022-12-06T00:11:36.556Z,20.87
2022-12-06T00:14:07.337Z,21.27
2022-12-06T00:16:35.245Z,20.90
2022-12-06T00:19:04.266Z,22.37
2022-12-06T00:21:36.859Z,21.60
2022-12-06T00:24:13.395Z,22.13
2022-12-06T00:26:44.185Z,22.20
2022-12-06T00:29:18.550Z,21.30
2022-12-06T00:31:46.039Z,20.47
2022-12-06T00:34:13.091Z,21.93
2022-12-06T00:36:42.474Z,21.40
2022-12-06T00:39:15.917Z,22.07
2022-12-06T00:41:44.222Z,21.83
2022-12-06T00:44:12.238Z,21.97
2022-12-06T00:46:40.099Z,21.97
2022-12-06T00:49:09.348Z,21.57
2022-12-06T00:51:37.367Z,20.53
2022-12-06T00:54:05.541Z,21.57
2022-12-06T00:56:34.455Z,21.63
2022-12-06T00:59:01.484Z,21.77
2022-12-06T01:01:31.618Z,22.27
2022-12-06T01:04:01.795Z,21.97
2022-12-06T01:06:32.598Z,21.63
2022-12-06T01:09:05.326Z,21.50
2022-12-06T01:11:33.366Z,20.90
2022-12-06T01:14:00.491Z,19.97
2022-12-06T01:16:30.126Z,22.27
2022-12-06T01:19:01.456Z,21.30
2022-12-06T01:21:29.494Z,23.87
2022-12-06T01:23:57.416Z,21.33
2022-12-06T01:26:27.686Z,22.37
2022-12-06T01:28:55.407Z,22.33
2022-12-06T01:31:22.816Z,21.80
2022-12-06T01:33:49.873Z,21.50
2022-12-06T01:36:23.255Z,23.30
2022-12-06T01:38:52.773Z,21.23
2022-12-06T01:41:22.225Z,22.47
2022-12-06T01:43:49.892Z,21.60
2022-12-06T01:46:42.038Z,23.67
2022-12-06T01:49:29.573Z,21.70
2022-12-06T01:52:05.986Z,21.90
2022-12-06T01:54:33.803Z,24.27
2022-12-06T01:57:05.096Z,22.23
2022-12-06T01:59:32.138Z,23.30
2022-12-06T02:01:59.398Z,22.17
2022-12-06T02:04:29.054Z,23.30
2022-12-06T02:06:57.558Z,22.57
2022-12-06T02:09:26.899Z,23.70
2022-12-06T02:11:53.916Z,23.97
2022-12-06T02:14:27.471Z,21.93
2022-12-06T02:17:18.922Z,22.63
2022-12-06T02:20:11.830Z,24.03
2022-12-06T02:23:02.630Z,22.57
2022-12-06T02:25:57.187Z,22.90
2022-12-06T02:28:52.105Z,21.37
2022-12-06T02:31:37.110Z,23.30
2022-12-06T02:34:18.189Z,23.00
2022-12-06T02:37:00.813Z,23.07
2022-12-06T02:39:38.307Z,22.47
2022-12-06T02:42:56.981Z,21.47
2022-12-06T02:45:30.053Z,22.43
2022-12-06T02:48:01.629Z,22.33
2022-12-06T02:50:37.771Z,22.43
2022-12-06T02:53:09.486Z,23.67
2022-12-06T02:55:37.091Z,23.13
2022-12-06T02:58:04.114Z,24.67
2022-12-06T03:00:44.340Z,24.33
2022-12-06T03:03:46.590Z,23.47
2022-12-06T03:06:51.005Z,22.17
2022-12-06T03:09:42.171Z,23.77
2022-12-06T03:12:24.916Z,22.97
2022-12-06T03:15:20.124Z,21.27
2022-12-06T03:17:50.015Z,23.63
2022-12-06T03:20:26.342Z,22.43
2022-12-06T03:23:05.329Z,23.30
2022-12-06T03:25:35.484Z,22.73
2022-12-06T03:28:05.406Z,23.27
2022-12-06T03:30:34.642Z,22.43
2022-12-06T03:33:02.878Z,23.20
2022-12-06T03:35:34.243Z,22.23
2022-12-06T03:38:14.880Z,21.73
2022-12-06T03:40:47.186Z,23.07
2022-12-06T03:43:14.938Z,23.40
2022-12-06T03:45:59.545Z,23.80
2022-12-06T03:48:40.209Z,22.67
2022-12-06T03:51:17.726Z,22.10
2022-12-06T03:53:51.920Z,22.70
2022-12-06T03:56:19.504Z,23.90
2022-12-06T03:58:46.609Z,23.53
2022-12-06T04:01:14.489Z,23.73
2022-12-06T04:03:41.758Z,22.50
2022-12-06T04:06:10.475Z,23.73
2022-12-06T04:08:37.582Z,22.10
2022-12-06T04:11:05.282Z,23.40
2022-12-06T04:13:32.629Z,22.40
2022-12-06T04:16:01.750Z,20.73
2022-12-06T04:18:29.180Z,23.93
2022-12-06T04:21:18.892Z,21.60
2022-12-06T04:23:51.676Z,22.43
2022-12-06T04:26:22.285Z,20.73
2022-12-06T04:29:10.163Z,21.90
2022-12-06T04:31:57.713Z,21.00
2022-12-06T04:34:43.278Z,22.50
2022-12-06T04:37:30.433Z,21.87
2022-12-06T04:39:57.611Z,22.13
2022-12-06T04:42:43.491Z,22.43
2022-12-06T04:45:11.018Z,22.53
2022-12-06T04:47:37.917Z,22.43
2022-12-06T04:50:05.524Z,22.47
2022-12-06T04:52:35.685Z,23.03
2022-12-06T04:55:05.095Z,21.37
2022-12-06T04:57:32.162Z,19.93
2022-12-06T04:59:59.392Z,21.20
2022-12-06T05:02:26.588Z,21.03
2022-12-06T05:04:53.556Z,21.10
2022-12-06T05:07:20.496Z,21.30
2022-12-06T05:09:47.454Z,21.50
2022-12-06T05:12:14.419Z,21.13
2022-12-06T05:14:41.381Z,20.63
2022-12-06T05:17:08.348Z,21.23
2022-12-06T05:19:35.359Z,21.00
2022-12-06T05:22:02.287Z,21.43
2022-12-06T05:24:29.239Z,22.60
2022-12-06T05:26:56.161Z,22.37
2022-12-06T05:29:23.062Z,20.47
2022-12-06T05:31:50.144Z,21.67
2022-12-06T05:34:17.188Z,20.57
2022-12-06T05:36:45.959Z,21.50
2022-12-06T05:39:13.001Z,20.47
2022-12-06T05:41:39.941Z,20.33
2022-12-06T05:44:06.948Z,21.53
2022-12-06T05:46:33.893Z,22.37
2022-12-06T05:49:00.825Z,22.77
2022-12-06T05:51:27.757Z,21.03
2022-12-06T05:53:54.875Z,20.87
2022-12-06T05:56:21.874Z,21.63
2022-12-06T05:58:49.103Z,20.30
2022-12-06T06:01:16.072Z,22.10
2022-12-06T06:03:47.401Z,21.77
2022-12-06T06:06:15.197Z,22.23
2022-12-06T06:08:42.268Z,21.50
2022-12-06T06:11:09.308Z,21.40
2022-12-06T06:13:36.263Z,22.07
2022-12-06T06:16:03.306Z,21.23
2022-12-06T06:18:30.273Z,20.93
2022-12-06T06:21:00.855Z,21.57
2022-12-06T06:23:28.731Z,19.80
2022-12-06T06:25:56.094Z,20.30
2022-12-06T06:28:23.781Z,20.60
2022-12-06T06:30:51.101Z,18.97
2022-12-06T06:33:18.119Z,17.93
2022-12-06T06:35:45.101Z,20.60
2022-12-06T06:38:12.813Z,18.93
2022-12-06T06:40:39.756Z,19.90
2022-12-06T06:43:20.164Z,20.17
2022-12-06T06:46:03.920Z,18.03
2022-12-06T06:48:35.513Z,17.73
2022-12-06T06:51:09.030Z,19.23
2022-12-06T06:53:36.955Z,18.07
2022-12-06T06:56:04.638Z,18.30
2022-12-06T06:58:32.054Z,18.07
2022-12-06T07:01:01.898Z,16.93
2022-12-06T07:03:29.460Z,17.23
2022-12-06T07:06:04.071Z,17.97
2022-12-06T07:08:32.264Z,17.17
2022-12-06T07:10:59.621Z,17.03
2022-12-06T07:13:28.685Z,18.43
2022-12-06T07:15:56.259Z,16.60
2022-12-06T07:18:23.418Z,17.80
2022-12-06T07:20:57.981Z,16.63
2022-12-06T07:23:24.974Z,16.77
2022-12-06T07:26:11.188Z,15.77
2022-12-06T07:28:40.842Z,17.00
2022-12-06T07:31:23.934Z,16.50
2022-12-06T07:33:57.823Z,16.60
2022-12-06T07:36:26.180Z,15.93
2022-12-06T07:38:56.217Z,17.17
2022-12-06T07:41:45.761Z,16.50
2022-12-06T07:44:34.121Z,16.20
2022-12-06T07:47:01.727Z,17.27
2022-12-06T07:49:29.078Z,17.37
2022-12-06T07:51:57.121Z,15.80
2022-12-06T07:54:24.845Z,15.43
2022-12-06T07:56:52.246Z,15.93
2022-12-06T07:59:19.293Z,16.77
2022-12-06T08:01:46.319Z,15.03
2022-12-06T08:04:13.807Z,15.63
2022-12-06T08:06:40.952Z,15.23
2022-12-06T08:09:08.955Z,14.80
2022-12-06T08:11:36.479Z,15.17
2022-12-06T08:14:04.844Z,15.30
2022-12-06T08:16:31.984Z,14.77
2022-12-06T08:18:59.198Z,14.17
2022-12-06T08:21:26.818Z,15.53
2022-12-06T08:23:54.856Z,16.43
2022-12-06T08:26:22.253Z,15.80
2022-12-06T08:28:49.704Z,16.73
2022-12-06T08:31:21.974Z,15.10
2022-12-06T08:33:49.386Z,16.40
2022-12-06T08:36:22.395Z,15.57
2022-12-06T08:38:51.067Z,16.67
2022-12-06T08:41:36.794Z,16.77
2022-12-06T08:44:04.912Z,18.43
2022-12-06T08:46:34.321Z,20.07
2022-12-06T08:49:01.752Z,18.67
2022-12-06T08:51:29.048Z,18.90
2022-12-06T08:53:56.682Z,17.83
2022-12-06T08:56:24.210Z,17.27
2022-12-06T08:58:53.888Z,17.20
2022-12-06T09:01:31.232Z,17.33
2022-12-06T09:04:02.689Z,17.93
2022-12-06T09:06:30.403Z,19.50
2022-12-06T09:08:58.503Z,18.47
2022-12-06T09:11:26.583Z,19.10
2022-12-06T09:13:53.541Z,19.47
2022-12-06T09:16:23.537Z,20.90
2022-12-06T09:18:51.643Z,20.07
2022-12-06T09:21:23.248Z,18.77
2022-12-06T09:23:51.168Z,20.70
2022-12-06T09:26:18.413Z,20.13
2022-12-06T09:28:50.671Z,20.33
2022-12-06T09:31:19.308Z,20.13
2022-12-06T09:33:46.955Z,20.13
2022-12-06T09:36:30.593Z,20.33
2022-12-06T09:39:23.387Z,18.60
2022-12-06T09:42:13.900Z,20.57
2022-12-06T09:45:02.967Z,19.27
2022-12-06T09:47:51.660Z,19.07
2022-12-06T09:50:47.616Z,19.60
2022-12-06T09:53:34.438Z,18.50
2022-12-06T09:56:36.116Z,20.27
2022-12-06T09:59:17.783Z,19.57
2022-12-06T10:02:16.019Z,20.00
2022-12-06T10:05:34.745Z,20.80
2022-12-06T10:08:58.532Z,21.20
2022-12-06T10:11:45.989Z,19.47
2022-12-06T10:15:01.214Z,20.60
2022-12-06T10:18:01.632Z,21.40
2022-12-06T10:20:40.632Z,22.57
2022-12-06T10:23:22.796Z,22.30
2022-12-06T10:26:25.115Z,24.83
2022-12-06T10:29:28.810Z,23.73
2022-12-06T10:32:15.320Z,23.30
2022-12-06T10:34:55.706Z,24.90
2022-12-06T10:37:35.879Z,24.67
2022-12-06T10:40:17.860Z,23.37
2022-12-06T10:43:12.073Z,23.83
2022-12-06T10:46:09.185Z,24.80
2022-12-06T10:48:47.722Z,25.47
2022-12-06T10:51:25.174Z,23.87
2022-12-06T10:54:05.502Z,24.93
2022-12-06T10:56:41.829Z,25.17
2022-12-06T10:59:54.378Z,24.83
2022-12-06T11:03:03.807Z,23.87
2022-12-06T11:05:42.455Z,24.87
2022-12-06T11:08:24.240Z,26.43
2022-12-06T11:10:55.324Z,24.67
2022-12-06T11:13:51.117Z,24.13
2022-12-06T11:16:28.313Z,24.00
2022-12-06T11:19:02.585Z,22.40
2022-12-06T11:21:52.320Z,22.27
2022-12-06T11:24:31.306Z,22.23
2022-12-06T11:27:15.832Z,22.23
2022-12-06T11:29:47.441Z,23.23
2022-12-06T11:32:16.477Z,22.43
2022-12-06T11:34:51.274Z,23.63
2022-12-06T11:37:21.794Z,24.53
2022-12-06T11:39:54.626Z,22.43
2022-12-06T11:42:27.851Z,24.50
2022-12-06T11:45:21.825Z,22.17
2022-12-06T11:47:48.823Z,23.63
2022-12-06T11:50:19.514Z,22.93
2022-12-06T11:53:19.193Z,23.00
2022-12-06T11:55:54.049Z,22.53
2022-12-06T11:58:38.412Z,21.93
2022-12-06T12:01:10.982Z,20.33
2022-12-06T12:03:41.932Z,20.53
2022-12-06T12:06:26.336Z,20.20
2022-12-06T12:09:01.873Z,21.07
2022-12-06T12:11:40.215Z,21.63
2022-12-06T12:14:24.207Z,21.07
2022-12-06T12:17:01.462Z,21.03
2022-12-06T12:20:06.541Z,21.00
2022-12-06T12:22:42.954Z,21.10
2022-12-06T12:25:30.067Z,22.13
2022-12-06T12:28:21.675Z,23.70
2022-12-06T12:31:00.395Z,23.70
2022-12-06T12:33:28.940Z,21.67
2022-12-06T12:36:29.177Z,24.60
2022-12-06T12:39:01.210Z,24.30
2022-12-06T12:41:32.454Z,24.67
2022-12-06T12:44:35.743Z,25.17
2022-12-06T12:47:20.008Z,23.50
2022-12-06T12:50:13.374Z,25.60
2022-12-06T12:52:42.700Z,25.33
2022-12-06T12:55:29.641Z,25.60
2022-12-06T12:58:00.798Z,26.23
2022-12-06T13:00:38.861Z,25.50
2022-12-06T13:03:50.306Z,25.43
2022-12-06T13:06:27.724Z,24.57
2022-12-06T13:08:59.399Z,25.60
2022-12-06T13:11:27.299Z,23.53
2022-12-06T13:13:56.451Z,26.67
2022-12-06T13:16:35.934Z,28.47
2022-12-06T13:19:03.543Z,25.30
2022-12-06T13:21:39.379Z,24.87
2022-12-06T13:24:18.186Z,25.27
2022-12-06T13:27:08.511Z,26.47
2022-12-06T13:29:41.554Z,26.53
2022-12-06T13:32:53.722Z,25.73
2022-12-06T13:35:30.627Z,25.00
2022-12-06T13:38:25.979Z,27.07
2022-12-06T13:40:56.566Z,24.87
2022-12-06T13:43:26.393Z,27.87
2022-12-06T13:46:24.123Z,26.97
2022-12-06T13:49:19.553Z,27.30
2022-12-06T13:51:47.761Z,29.40
2022-12-06T13:54:15.508Z,27.13
2022-12-06T13:56:43.163Z,28.83
2022-12-06T13:59:13.148Z,27.20
2022-12-06T14:01:51.345Z,27.70
2022-12-06T14:04:24.620Z,27.03
2022-12-06T14:09:52.848Z,26.87
2022-12-06T14:12:28.509Z,25.60
2022-12-06T14:15:06.191Z,26.53
2022-12-06T14:20:31.984Z,26.07
2022-12-06T14:22:59.653Z,25.00
2022-12-06T14:25:30.426Z,23.40
2022-12-06T14:28:13.701Z,24.30
2022-12-06T14:30:40.888Z,23.73
2022-12-06T14:33:23.620Z,24.87
2022-12-06T14:35:53.783Z,23.73
2022-12-06T14:38:30.539Z,24.77
2022-12-06T14:41:16.433Z,24.63
2022-12-06T14:43:48.028Z,24.80
2022-12-06T14:46:17.858Z,24.70
2022-12-06T14:49:04.498Z,24.27
2022-12-06T14:51:40.762Z,24.53
2022-12-06T14:54:19.723Z,24.40
2022-12-06T14:56:47.789Z,24.43
2022-12-06T14:59:39.094Z,25.37
2022-12-06T15:02:25.812Z,24.60
2022-12-06T15:04:53.523Z,25.20
2022-12-06T15:07:49.941Z,25.73
2022-12-06T15:10:25.328Z,24.27
2022-12-06T15:12:55.647Z,24.67
2022-12-06T15:15:46.462Z,23.17
2022-12-06T15:18:26.453Z,23.43
2022-12-06T15:20:54.134Z,23.00
2022-12-06T15:23:36.382Z,23.30
2022-12-06T15:26:12.023Z,23.03
2022-12-06T15:28:39.645Z,23.33
2022-12-06T15:31:15.846Z,22.47
2022-12-06T15:33:42.866Z,21.90
2022-12-06T15:36:22.213Z,22.40
2022-12-06T15:38:49.816Z,21.93
2022-12-06T15:41:26.573Z,21.60
2022-12-06T15:43:54.798Z,22.60
2022-12-06T15:46:28.738Z,22.87
2022-12-06T15:48:56.473Z,22.43
2022-12-06T15:51:27.115Z,22.80
2022-12-06T16:14:21.374Z,20.23
2022-12-06T16:16:48.386Z,20.90
2022-12-06T16:19:15.394Z,19.87
2022-12-06T16:21:58.092Z,20.90
2022-12-06T16:24:25.070Z,21.40
2022-12-06T16:26:52.095Z,20.77
2022-12-06T16:29:25.029Z,21.13
2022-12-06T16:31:53.083Z,21.47
2022-12-06T16:34:20.599Z,21.10
2022-12-06T16:37:03.875Z,22.03
2022-12-06T16:39:33.705Z,21.17
2022-12-06T16:42:01.560Z,21.23
2022-12-06T16:44:28.795Z,20.23
2022-12-06T16:46:55.984Z,21.50
2022-12-06T16:49:45.913Z,21.93
2022-12-06T16:52:14.919Z,19.80
2022-12-06T16:54:42.418Z,20.87
2022-12-06T16:57:14.365Z,20.30
2022-12-06T16:59:42.773Z,20.67
2022-12-06T17:02:27.118Z,20.20
2022-12-06T17:04:56.088Z,19.80
2022-12-06T17:07:23.584Z,17.73
2022-12-06T17:09:50.590Z,18.77
2022-12-06T17:12:18.225Z,18.07
2022-12-06T17:14:45.445Z,19.47
2022-12-06T17:17:18.956Z,19.07
2022-12-06T17:19:46.260Z,18.13
2022-12-06T17:22:18.991Z,19.73
2022-12-06T17:24:46.119Z,20.47
2022-12-06T17:27:15.078Z,18.40
2022-12-06T17:29:43.581Z,19.43
2022-12-06T17:32:11.552Z,19.93
2022-12-06T17:34:38.828Z,18.50
2022-12-06T17:37:06.226Z,19.70
2022-12-06T17:39:33.795Z,19.87
2022-12-06T17:42:19.261Z,18.93
2022-12-06T17:44:46.356Z,20.03
2022-12-06T17:47:13.387Z,19.27
2022-12-06T17:49:40.346Z,20.30
2022-12-06T17:52:07.394Z,18.77
2022-12-06T17:54:34.351Z,20.17
2022-12-06T17:57:01.419Z,18.50
2022-12-06T17:59:31.879Z,19.57
2022-12-06T18:02:17.362Z,19.13
2022-12-06T18:04:46.454Z,19.33
2022-12-06T18:07:14.134Z,19.50
2022-12-06T18:09:41.320Z,19.47
2022-12-06T18:12:10.508Z,17.90
2022-12-06T18:14:37.634Z,19.53
2022-12-06T18:17:04.949Z,19.10
2022-12-06T18:19:32.193Z,19.53
2022-12-06T18:21:59.181Z,18.77
2022-12-06T18:24:31.784Z,18.57
2022-12-06T18:27:01.531Z,19.67
2022-12-06T18:29:28.545Z,20.03
2022-12-06T18:31:55.750Z,19.57
2022-12-06T18:34:23.005Z,21.00
2022-12-06T18:36:51.051Z,21.30
2022-12-06T18:39:24.546Z,21.70
2022-12-06T18:41:53.781Z,20.63
2022-12-06T18:44:21.141Z,20.00
2022-12-06T18:46:48.436Z,21.53
2022-12-06T18:49:15.757Z,21.77
2022-12-06T18:51:42.885Z,22.27
2022-12-06T18:54:13.772Z,24.97
2022-12-06T18:56:42.891Z,23.43
2022-12-06T18:59:12.130Z,25.17
2022-12-06T19:01:41.021Z,22.43
2022-12-06T19:04:11.101Z,21.90
2022-12-06T19:06:38.658Z,23.50
2022-12-06T19:09:12.167Z,22.70
2022-12-06T19:11:42.104Z,23.10
2022-12-06T19:14:09.181Z,23.80
2022-12-06T19:16:44.421Z,23.60
2022-12-06T19:19:24.079Z,22.43
2022-12-06T19:21:53.873Z,20.87
2022-12-06T19:24:24.846Z,20.17
2022-12-06T19:26:54.062Z,19.83
2022-12-06T19:29:22.112Z,19.53
2022-12-06T19:31:49.584Z,20.07
2022-12-06T19:34:22.738Z,20.67
2022-12-06T19:36:52.193Z,20.50
2022-12-06T19:39:20.519Z,20.83
2022-12-06T19:42:07.530Z,21.07
2022-12-06T19:44:35.067Z,20.00
2022-12-06T19:47:02.196Z,19.90
2022-12-06T19:49:29.297Z,20.80
2022-12-06T19:51:56.432Z,23.63
2022-12-06T19:54:29.986Z,21.43
2022-12-06T19:56:59.318Z,21.77
2022-12-06T19:59:33.822Z,21.63
2022-12-06T20:02:01.503Z,20.93
2022-12-06T20:04:37.994Z,20.63
2022-12-06T20:07:05.799Z,22.47
2022-12-06T20:09:33.666Z,20.60
2022-12-06T20:12:03.221Z,22.13
2022-12-06T20:14:45.007Z,22.47
2022-12-06T20:17:20.646Z,21.30
2022-12-06T20:19:49.267Z,21.67
2022-12-06T20:22:22.727Z,22.30
2022-12-06T20:24:50.168Z,22.27
2022-12-06T20:27:17.142Z,23.47
2022-12-06T20:29:44.203Z,22.03
2022-12-06T20:32:11.560Z,22.80
2022-12-06T20:34:38.548Z,23.70
2022-12-06T20:37:07.022Z,22.57
2022-12-06T20:39:35.956Z,22.70
2022-12-06T20:42:05.804Z,23.23
2022-12-06T20:44:33.182Z,23.17
2022-12-06T20:47:00.446Z,22.63
2022-12-06T20:49:27.523Z,23.40
2022-12-06T20:51:54.617Z,22.80
2022-12-06T20:54:22.344Z,23.93
2022-12-06T20:56:52.135Z,24.37
2022-12-06T20:59:20.013Z,22.77
2022-12-06T21:01:47.199Z,23.70
2022-12-06T21:04:15.029Z,22.33
2022-12-06T21:06:42.559Z,24.03
2022-12-06T21:09:09.570Z,23.20
2022-12-06T21:11:36.922Z,23.07
2022-12-06T21:14:05.553Z,23.93
2022-12-06T21:16:35.442Z,23.03
2022-12-06T21:19:06.132Z,22.83
2022-12-06T21:21:39.892Z,24.73
2022-12-06T21:24:12.085Z,25.30
2022-12-06T21:26:39.194Z,26.13
2022-12-06T21:29:06.691Z,24.67
2022-12-06T21:31:41.061Z,26.33
2022-12-06T21:34:08.516Z,25.47
2022-12-06T21:36:35.476Z,24.77
2022-12-06T21:39:02.432Z,24.70
2022-12-06T21:41:29.476Z,23.90
2022-12-06T21:43:56.822Z,22.87
2022-12-06T21:46:26.908Z,22.13
2022-12-06T21:49:00.091Z,23.43
2022-12-06T21:51:30.533Z,22.90
2022-12-06T21:53:58.636Z,22.73
2022-12-06T21:56:29.728Z,22.63
2022-12-06T21:58:59.991Z,21.87
2022-12-06T22:01:29.082Z,22.47
2022-12-06T22:04:01.086Z,21.93
2022-12-06T22:06:28.110Z,21.87
2022-12-06T22:09:02.575Z,21.53
2022-12-06T22:11:30.617Z,20.93
2022-12-06T22:13:59.738Z,21.43
2022-12-06T22:16:28.111Z,19.37
2022-12-06T22:18:55.516Z,18.70
2022-12-06T22:21:26.613Z,17.33
2022-12-06T22:23:54.728Z,17.40
2022-12-06T22:26:23.932Z,15.70
2022-12-06T22:28:51.574Z,15.80
2022-12-06T22:31:28.334Z,16.00
2022-12-06T22:33:57.497Z,15.23
2022-12-06T22:36:27.090Z,16.40
2022-12-06T22:39:00.575Z,15.60
2022-12-06T22:41:28.301Z,14.47
2022-12-06T22:44:04.574Z,14.00
2022-12-06T22:46:33.081Z,13.93
2022-12-06T22:49:01.396Z,14.17
2022-12-06T22:51:35.061Z,14.30
2022-12-06T22:54:10.307Z,14.10
2022-12-06T22:56:39.732Z,14.00
2022-12-06T22:59:08.986Z,12.80
2022-12-06T23:01:36.215Z,13.97
2022-12-06T23:04:06.680Z,13.53
2022-12-06T23:06:35.945Z,12.33
2022-12-06T23:09:07.789Z,13.27
2022-12-06T23:11:36.798Z,13.33
2022-12-06T23:14:04.585Z,12.97
2022-12-06T23:16:32.677Z,13.67
2022-12-06T23:19:02.024Z,13.37
2022-12-06T23:21:32.412Z,12.87
2022-12-06T23:24:04.323Z,13.13
2022-12-06T23:26:35.427Z,13.37
2022-12-06T23:29:02.706Z,13.03
2022-12-06T23:31:33.027Z,12.30
2022-12-06T23:34:30.058Z,11.27
2022-12-06T23:36:57.417Z,12.37
2022-12-06T23:39:24.455Z,11.63
2022-12-06T23:41:51.503Z,13.43
2022-12-06T23:44:18.568Z,13.90
2022-12-06T23:46:46.067Z,13.60
2022-12-06T23:49:21.942Z,14.20
2022-12-06T23:51:49.643Z,15.00
2022-12-06T23:54:18.002Z,16.17
2022-12-06T23:56:45.238Z,14.57
2022-12-06T23:59:14.756Z,15.13
